createdAt,value
2019-01-02T00:00:45.700Z,4.00
2019-01-02T00:01:45.770Z,4.00
2019-01-02T00:02:45.749Z,4.00
2019-01-02T00:03:46.096Z,4.00
2019-01-02T00:04:45.857Z,4.00
2019-01-02T00:05:45.873Z,4.00
2019-01-02T00:06:45.925Z,4.00
2019-01-02T00:08:45.992Z,4.00
2019-01-02T00:09:45.958Z,4.00
2019-01-02T00:10:46.306Z,4.00
2019-01-02T00:11:46.020Z,4.00
2019-01-02T00:12:46.157Z,4.00
2019-01-02T00:13:46.086Z,4.00
2019-01-02T00:14:46.114Z,4.00
2019-01-02T00:15:46.145Z,4.00
2019-01-02T00:16:46.173Z,4.00
2019-01-02T00:17:46.504Z,4.00
2019-01-02T00:18:46.339Z,4.00
2019-01-02T00:19:46.323Z,4.00
2019-01-02T00:21:46.325Z,4.00
2019-01-02T00:22:46.426Z,4.00
2019-01-02T00:25:46.499Z,4.00
2019-01-02T00:26:46.781Z,4.00
2019-01-02T00:27:46.560Z,4.00
2019-01-02T00:28:46.544Z,4.00
2019-01-02T00:29:46.624Z,4.00
2019-01-02T00:30:46.603Z,4.00
2019-01-02T00:31:46.696Z,4.00
2019-01-02T00:32:46.668Z,4.00
2019-01-02T00:33:46.998Z,4.00
2019-01-02T00:34:46.746Z,4.00
2019-01-02T00:35:46.758Z,4.00
2019-01-02T00:36:46.838Z,4.00
2019-01-02T00:37:46.818Z,4.00
2019-01-02T00:38:46.896Z,4.00
2019-01-02T00:39:46.885Z,4.00
2019-01-02T00:40:46.909Z,4.00
2019-01-02T00:41:46.945Z,4.00
2019-01-02T00:42:47.072Z,4.00
2019-01-02T00:43:47.064Z,4.00
2019-01-02T00:44:47.046Z,4.00
2019-01-02T00:45:47.116Z,4.00
2019-01-02T00:47:47.425Z,4.00
2019-01-02T00:48:47.159Z,4.00
2019-01-02T00:49:47.232Z,4.00
2019-01-02T00:50:47.221Z,4.00
2019-01-02T00:51:47.300Z,4.00
2019-01-02T00:52:47.331Z,4.00
2019-01-02T00:53:47.364Z,4.00
2019-01-02T00:54:47.785Z,4.00
2019-01-02T00:55:47.417Z,4.00
2019-01-02T00:56:47.456Z,4.00
2019-01-02T00:57:47.477Z,4.00
2019-01-02T00:58:47.464Z,4.00
2019-01-02T00:59:47.493Z,4.00
2019-01-02T01:00:47.522Z,4.00
2019-01-02T01:01:47.961Z,4.00
2019-01-02T01:02:47.623Z,4.00
2019-01-02T01:03:47.670Z,4.00
2019-01-02T01:04:47.702Z,4.00
2019-01-02T01:05:47.678Z,4.00
2019-01-02T01:06:47.801Z,4.00
2019-01-02T01:07:47.787Z,4.00
2019-01-02T01:08:48.073Z,4.00
2019-01-02T01:09:47.796Z,4.00
2019-01-02T01:10:47.881Z,4.00
2019-01-02T01:11:47.913Z,4.00
2019-01-02T01:12:47.946Z,4.00
2019-01-02T01:13:47.965Z,4.00
2019-01-02T01:14:47.949Z,4.00
2019-01-02T01:15:48.277Z,4.00
2019-01-02T01:16:48.108Z,4.00
2019-01-02T01:17:48.089Z,4.00
2019-01-02T01:18:48.071Z,4.00
2019-01-02T01:19:48.155Z,4.00
2019-01-02T01:20:48.134Z,4.00
2019-01-02T01:21:48.261Z,4.00
2019-01-02T01:22:48.488Z,4.00
2019-01-02T01:23:48.358Z,4.00
2019-01-02T01:24:48.302Z,4.00
2019-01-02T01:25:48.329Z,4.00
2019-01-02T01:26:48.313Z,4.00
2019-01-02T01:27:48.344Z,4.00
2019-01-02T01:28:48.423Z,4.00
2019-01-02T01:29:48.704Z,4.00
2019-01-02T01:30:48.432Z,4.00
2019-01-02T01:31:48.538Z,4.00
2019-01-02T01:32:49.940Z,4.00
2019-01-02T01:34:48.805Z,4.00
2019-01-02T01:35:48.640Z,4.00
2019-01-02T01:36:48.948Z,4.00
2019-01-02T01:37:48.708Z,4.00
2019-01-02T01:38:48.680Z,4.00
2019-01-02T01:39:48.776Z,4.00
2019-01-02T01:40:48.794Z,4.00
2019-01-02T01:41:48.793Z,4.00
2019-01-02T01:42:49.098Z,4.00
2019-01-02T01:43:48.830Z,4.00
2019-01-02T01:44:48.929Z,4.00
2019-01-02T01:45:48.943Z,4.00
2019-01-02T01:46:48.924Z,4.00
2019-01-02T01:47:49.021Z,4.00
2019-01-02T01:48:49.309Z,4.00
2019-01-02T01:49:49.025Z,4.00
2019-01-02T01:50:49.103Z,4.00
2019-01-02T01:51:49.133Z,4.00
2019-01-02T01:52:49.172Z,4.00
2019-01-02T01:53:49.186Z,4.00
2019-01-02T01:54:49.476Z,4.00
2019-01-02T01:55:49.298Z,4.00
2019-01-02T01:56:49.280Z,4.00
2019-01-02T01:57:49.313Z,4.00
2019-01-02T01:58:49.314Z,4.00
2019-01-02T01:59:49.374Z,4.00
2019-01-02T02:00:49.411Z,4.00
2019-01-02T02:01:49.682Z,4.00
2019-01-02T02:02:49.468Z,4.00
2019-01-02T02:03:49.488Z,4.00
2019-01-02T02:04:49.525Z,4.00
2019-01-02T02:05:49.552Z,4.00
2019-01-02T02:06:49.586Z,4.00
2019-01-02T02:07:50.505Z,4.00
2019-01-02T02:08:49.897Z,4.00
2019-01-02T02:09:49.752Z,4.00
2019-01-02T02:10:49.661Z,4.00
2019-01-02T02:11:49.741Z,4.00
2019-01-02T02:12:49.943Z,4.00
2019-01-02T02:13:49.800Z,4.00
2019-01-02T02:15:50.112Z,4.00
2019-01-02T02:16:49.897Z,4.00
2019-01-02T02:17:49.930Z,4.00
2019-01-02T02:18:49.905Z,4.00
2019-01-02T02:19:49.977Z,4.00
2019-01-02T02:20:50.017Z,4.00
2019-01-02T02:21:50.044Z,4.00
2019-01-02T02:22:50.321Z,4.00
2019-01-02T02:25:50.113Z,4.00
2019-01-02T02:26:50.239Z,4.00
2019-01-02T02:27:50.239Z,4.00
2019-01-02T02:28:50.209Z,4.00
2019-01-02T02:29:50.580Z,4.00
2019-01-02T02:30:50.266Z,4.00
2019-01-02T02:31:50.356Z,4.00
2019-01-02T02:32:50.404Z,4.00
2019-01-02T02:33:50.364Z,4.00
2019-01-02T02:34:50.393Z,4.00
2019-01-02T02:35:50.464Z,4.00
2019-01-02T02:36:50.751Z,4.00
2019-01-02T02:37:50.527Z,4.00
2019-01-02T02:38:50.506Z,4.00
2019-01-02T02:39:50.607Z,4.00
2019-01-02T02:40:50.569Z,4.00
2019-01-02T02:41:50.596Z,4.00
2019-01-02T02:42:50.674Z,4.00
2019-01-02T02:43:50.957Z,4.00
2019-01-02T02:44:50.740Z,4.00
2019-01-02T02:45:50.773Z,4.00
2019-01-02T02:46:50.751Z,4.00
2019-01-02T02:47:50.867Z,4.00
2019-01-02T02:48:50.813Z,4.00
2019-01-02T02:49:50.894Z,4.00
2019-01-02T02:50:51.178Z,0.00
2019-01-02T02:51:50.955Z,0.00
2019-01-02T02:52:50.948Z,0.00
2019-01-02T02:53:51.027Z,0.00
2019-01-02T02:54:51.042Z,0.00
2019-01-02T02:55:51.078Z,0.00
2019-01-02T02:56:51.065Z,0.00
2019-01-02T02:57:51.401Z,0.00
2019-01-02T02:58:51.175Z,0.00
2019-01-02T02:59:51.504Z,0.00
2019-01-02T03:00:51.234Z,0.00
2019-01-02T03:01:51.300Z,0.00
2019-01-02T03:02:51.310Z,0.00
2019-01-02T03:03:51.320Z,0.00
2019-01-02T03:04:51.659Z,0.00
2019-01-02T03:05:51.323Z,0.00
2019-01-02T03:06:55.386Z,0.00
2019-01-02T03:07:51.450Z,0.00
2019-01-02T03:08:51.433Z,0.00
2019-01-02T03:09:51.513Z,0.00
2019-01-02T03:10:51.481Z,0.00
2019-01-02T03:11:51.820Z,0.00
2019-01-02T03:12:51.643Z,0.00
2019-01-02T03:13:51.632Z,0.00
2019-01-02T03:14:51.597Z,0.00
2019-01-02T03:15:51.705Z,0.00
2019-01-02T03:16:51.658Z,0.00
2019-01-02T03:17:51.746Z,0.00
2019-01-02T03:18:52.025Z,0.00
2019-01-02T03:19:51.802Z,0.00
2019-01-02T03:20:51.783Z,0.00
2019-01-02T03:21:51.826Z,0.00
2019-01-02T03:22:51.995Z,0.00
2019-01-02T03:23:51.928Z,0.00
2019-01-02T03:24:51.904Z,0.00
2019-01-02T03:25:52.281Z,0.00
2019-01-02T03:26:51.966Z,0.00
2019-01-02T03:27:52.049Z,0.00
2019-01-02T03:28:52.036Z,0.00
2019-01-02T03:29:52.058Z,0.00
2019-01-02T03:30:52.094Z,0.00
2019-01-02T03:31:52.425Z,0.00
2019-01-02T03:32:52.200Z,0.00
2019-01-02T03:33:52.232Z,0.00
2019-01-02T03:34:52.211Z,0.00
2019-01-02T03:35:52.241Z,0.00
2019-01-02T03:37:52.353Z,0.00
2019-01-02T03:38:52.379Z,0.00
2019-01-02T03:39:52.407Z,0.00
2019-01-02T03:40:52.441Z,0.00
2019-01-02T03:41:52.420Z,0.00
2019-01-02T03:42:52.505Z,0.00
2019-01-02T03:43:52.533Z,0.00
2019-01-02T03:44:52.863Z,0.00
2019-01-02T03:45:52.593Z,0.00
2019-01-02T03:46:52.826Z,0.00
2019-01-02T03:47:52.604Z,0.00
2019-01-02T03:48:52.773Z,0.00
2019-01-02T03:49:52.716Z,0.00
2019-01-02T03:50:52.993Z,0.00
2019-01-02T03:51:52.823Z,0.00
2019-01-02T03:52:52.752Z,0.00
2019-01-02T03:53:52.798Z,0.00
2019-01-02T03:54:52.863Z,0.00
2019-01-02T03:55:52.897Z,0.00
2019-01-02T03:57:52.960Z,0.00
2019-01-02T03:58:53.244Z,0.00
2019-01-02T03:59:52.969Z,0.00
2019-01-02T04:00:53.043Z,0.00
2019-01-02T04:01:53.078Z,0.00
2019-01-02T04:02:53.073Z,0.00
2019-01-02T04:03:53.191Z,0.00
2019-01-02T04:04:53.123Z,0.00
2019-01-02T04:05:53.456Z,0.00
2019-01-02T04:06:53.230Z,0.00
2019-01-02T04:07:53.255Z,0.00
2019-01-02T04:08:53.290Z,0.00
2019-01-02T04:09:53.373Z,0.00
2019-01-02T04:10:53.303Z,0.00
2019-01-02T04:11:53.374Z,0.00
2019-01-02T04:12:53.760Z,0.00
2019-01-02T04:13:53.491Z,0.00
2019-01-02T04:15:53.499Z,0.00
2019-01-02T04:16:53.538Z,0.00
2019-01-02T04:17:53.612Z,0.00
2019-01-02T04:18:53.588Z,0.00
2019-01-02T04:19:54.169Z,0.00
2019-01-02T04:20:53.657Z,0.00
2019-01-02T04:21:53.639Z,0.00
2019-01-02T04:22:53.660Z,0.00
2019-01-02T04:23:53.741Z,0.00
2019-01-02T04:24:53.799Z,0.00
2019-01-02T04:25:53.797Z,0.00
2019-01-02T04:26:54.138Z,0.00
2019-01-02T04:27:53.867Z,0.00
2019-01-02T04:28:53.847Z,0.00
2019-01-02T04:29:53.926Z,0.00
2019-01-02T04:30:53.906Z,0.00
2019-01-02T04:31:53.991Z,0.00
2019-01-02T04:32:54.015Z,0.00
2019-01-02T04:33:54.301Z,0.00
2019-01-02T04:34:54.094Z,0.00
2019-01-02T04:35:54.111Z,0.00
2019-01-02T04:36:54.137Z,0.00
2019-01-02T04:37:54.164Z,0.00
2019-01-02T04:39:54.244Z,0.00
2019-01-02T04:41:37.662Z,0.00
2019-01-02T04:42:37.676Z,0.00
2019-01-02T04:43:37.740Z,0.00
2019-01-02T04:44:37.749Z,0.00
2019-01-02T04:45:37.717Z,0.00
2019-01-02T04:46:37.800Z,0.00
2019-01-02T04:47:38.127Z,0.00
2019-01-02T04:48:37.862Z,0.00
2019-01-02T04:49:37.836Z,0.00
2019-01-02T04:50:37.922Z,0.00
2019-01-02T04:52:37.986Z,0.00
2019-01-02T05:27:39.279Z,0.00
2019-01-02T05:28:39.063Z,0.00
2019-01-02T05:29:39.042Z,0.00
2019-01-02T05:31:39.100Z,0.00
2019-01-02T05:32:39.139Z,0.00
2019-01-02T05:33:39.215Z,0.00
2019-01-02T05:34:39.202Z,0.00
2019-01-02T05:35:39.278Z,0.00
2019-01-02T05:36:39.305Z,0.00
2019-01-02T05:37:39.338Z,0.00
2019-01-02T05:38:39.320Z,0.00
2019-01-02T05:39:39.352Z,0.00
2019-01-02T05:40:39.673Z,0.00
2019-01-02T05:41:39.423Z,0.00
2019-01-02T05:42:39.483Z,0.00
2019-01-02T05:43:39.469Z,0.00
2019-01-02T05:44:39.542Z,0.00
2019-01-02T05:45:39.544Z,0.00
2019-01-02T05:46:39.612Z,0.00
2019-01-02T05:47:39.585Z,0.00
2019-01-02T05:48:39.661Z,0.00
2019-01-02T05:49:39.649Z,0.00
2019-01-02T05:51:39.707Z,0.00
2019-01-02T05:52:39.742Z,0.00
2019-01-02T05:53:40.118Z,0.00
2019-01-02T05:54:39.794Z,0.00
2019-01-02T05:55:39.831Z,0.00
2019-01-02T05:56:39.912Z,0.00
2019-01-02T05:57:39.892Z,0.00
2019-01-02T05:58:39.970Z,0.00
2019-01-02T05:59:40.259Z,0.00
2019-01-02T06:00:40.037Z,0.00
2019-01-02T06:03:40.113Z,0.00
2019-01-02T06:04:40.100Z,0.00
2019-01-02T06:05:40.178Z,0.00
2019-01-02T06:07:40.184Z,0.00
2019-01-02T06:08:40.268Z,0.00
2019-01-02T06:09:40.298Z,0.00
2019-01-02T06:10:40.337Z,0.00
2019-01-02T06:11:40.605Z,0.00
2019-01-02T06:12:40.394Z,0.00
2019-01-02T06:13:40.397Z,0.00
2019-01-02T06:14:40.394Z,0.00
2019-01-02T06:15:40.530Z,0.00
2019-01-02T06:16:40.508Z,0.00
2019-01-02T06:17:40.488Z,0.00
2019-01-02T06:18:40.827Z,0.00
2019-01-02T06:19:40.548Z,0.00
2019-01-02T06:20:40.626Z,0.00
2019-01-02T06:21:40.666Z,0.00
2019-01-02T06:22:40.642Z,0.00
2019-01-02T06:23:40.718Z,0.00
2019-01-02T06:24:40.752Z,0.00
2019-01-02T06:25:41.037Z,0.00
2019-01-02T06:26:40.762Z,0.00
2019-01-02T06:27:40.853Z,0.00
2019-01-02T06:28:40.882Z,0.00
2019-01-02T06:29:40.907Z,0.00
2019-01-02T06:30:40.938Z,0.00
2019-01-02T06:31:40.907Z,0.00
2019-01-02T06:32:41.294Z,0.00
2019-01-02T06:33:40.972Z,0.00
2019-01-02T06:34:41.058Z,0.00
2019-01-02T06:35:41.027Z,0.00
2019-01-02T06:37:41.196Z,0.00
2019-01-02T06:38:41.173Z,0.00
2019-01-02T06:39:41.453Z,0.00
2019-01-02T06:40:41.229Z,0.00
2019-01-02T06:41:41.207Z,0.00
2019-01-02T06:42:41.300Z,0.00
2019-01-02T06:43:41.267Z,0.00
2019-01-02T06:44:41.361Z,0.00
2019-01-02T06:45:41.333Z,0.00
2019-01-02T06:46:41.360Z,0.00
2019-01-02T06:47:41.443Z,0.00
2019-01-02T06:48:41.510Z,0.00
2019-01-02T06:49:41.452Z,0.00
2019-01-02T06:50:41.533Z,0.00
2019-01-02T06:51:41.512Z,0.00
2019-01-02T06:52:41.845Z,0.00
2019-01-02T06:53:41.617Z,0.00
2019-01-02T06:54:41.643Z,0.00
2019-01-02T06:55:41.678Z,0.00
2019-01-02T06:56:41.714Z,0.00
2019-01-02T06:57:41.692Z,0.00
2019-01-02T06:58:41.725Z,0.00
2019-01-02T06:59:42.060Z,0.00
2019-01-02T07:00:41.785Z,0.00
2019-01-02T07:01:41.864Z,0.00
2019-01-02T07:02:41.860Z,0.00
2019-01-02T07:03:41.867Z,0.00
2019-01-02T07:04:41.903Z,0.00
2019-01-02T07:05:41.931Z,0.00
2019-01-02T07:06:42.317Z,0.00
2019-01-02T07:07:41.996Z,0.00
2019-01-02T07:08:42.074Z,0.00
2019-01-02T07:09:42.062Z,4.00
2019-01-02T07:10:42.136Z,4.00
2019-01-02T07:11:42.157Z,0.00
2019-01-02T07:12:42.188Z,4.00
2019-01-02T07:13:42.471Z,4.00
2019-01-02T07:14:42.199Z,4.00
2019-01-02T07:15:42.235Z,4.00
2019-01-02T07:17:42.342Z,4.00
2019-01-02T07:18:42.318Z,4.00
2019-01-02T07:19:42.778Z,4.00
2019-01-02T07:20:42.427Z,4.00
2019-01-02T07:21:42.469Z,8.00
2019-01-02T07:22:42.486Z,8.00
2019-01-02T07:24:42.548Z,12.00
2019-01-02T07:26:42.556Z,16.00
2019-01-02T07:27:42.644Z,16.00
2019-01-02T07:28:42.626Z,20.00
2019-01-02T07:30:42.680Z,24.00
2019-01-02T07:31:43.013Z,24.00
2019-01-02T07:32:42.789Z,28.00
2019-01-02T07:33:42.821Z,32.00
2019-01-02T07:34:42.819Z,36.00
2019-01-02T07:35:42.882Z,36.00
2019-01-02T07:36:42.912Z,40.00
2019-01-02T07:37:42.892Z,40.00
2019-01-02T07:38:43.226Z,40.00
2019-01-02T07:40:42.982Z,52.00
2019-01-02T07:41:43.061Z,56.00
2019-01-02T07:42:43.086Z,60.00
2019-01-02T07:43:43.068Z,64.00
2019-01-02T07:44:43.154Z,72.00
2019-01-02T07:45:43.426Z,72.00
2019-01-02T07:46:43.165Z,76.00
2019-01-02T07:47:43.237Z,80.00
2019-01-02T07:48:43.271Z,88.00
2019-01-02T07:49:43.255Z,88.00
2019-01-02T07:50:43.283Z,92.00
2019-01-02T07:51:43.355Z,88.00
2019-01-02T07:52:43.391Z,80.00
2019-01-02T07:53:43.370Z,72.00
2019-01-02T07:54:43.398Z,76.00
2019-01-02T07:55:43.488Z,80.00
2019-01-02T07:56:43.510Z,84.00
2019-01-02T07:57:43.542Z,80.00
2019-01-02T07:58:43.525Z,96.00
2019-01-02T07:59:43.566Z,104.00
2019-01-02T08:00:43.576Z,108.00
2019-01-02T08:01:43.608Z,112.00
2019-01-02T08:02:43.689Z,120.00
2019-01-02T08:03:43.668Z,140.00
2019-01-02T08:04:43.996Z,144.00
2019-01-02T08:05:43.733Z,156.00
2019-01-02T08:06:43.760Z,168.00
2019-01-02T08:07:43.840Z,172.00
2019-01-02T08:08:43.814Z,192.00
2019-01-02T08:09:43.844Z,212.00
2019-01-02T08:10:43.886Z,216.00
2019-01-02T08:11:44.206Z,224.00
2019-01-02T08:12:43.990Z,232.00
2019-01-02T08:13:43.972Z,236.00
2019-01-02T08:14:44.022Z,252.00
2019-01-02T08:15:44.030Z,272.00
2019-01-02T08:16:44.060Z,284.00
2019-01-02T08:17:44.386Z,292.00
2019-01-02T08:18:44.176Z,296.00
2019-01-02T08:19:44.147Z,296.00
2019-01-02T08:20:44.230Z,276.00
2019-01-02T08:21:44.209Z,260.00
2019-01-02T08:22:44.248Z,276.00
2019-01-02T08:23:45.893Z,276.00
2019-01-02T08:24:44.349Z,280.00
2019-01-02T08:25:44.383Z,272.00
2019-01-02T08:26:44.358Z,280.00
2019-01-02T08:27:44.394Z,284.00
2019-01-02T08:28:44.469Z,272.00
2019-01-02T08:29:44.749Z,272.00
2019-01-02T08:30:44.573Z,292.00
2019-01-02T08:31:44.518Z,280.00
2019-01-02T08:32:44.587Z,292.00
2019-01-02T08:33:44.615Z,300.00
2019-01-02T08:34:44.644Z,304.00
2019-01-02T08:35:44.629Z,320.00
2019-01-02T08:36:44.712Z,304.00
2019-01-02T08:37:44.687Z,320.00
2019-01-02T08:38:44.722Z,316.00
2019-01-02T08:39:44.799Z,336.00
2019-01-02T08:40:44.825Z,352.00
2019-01-02T08:41:44.805Z,348.00
2019-01-02T08:42:45.134Z,364.00
2019-01-02T08:43:44.873Z,368.00
2019-01-02T08:44:44.949Z,372.00
2019-01-02T08:45:44.974Z,376.00
2019-01-02T08:46:45.021Z,368.00
2019-01-02T08:47:44.997Z,360.00
2019-01-02T08:48:45.012Z,376.00
2019-01-02T08:49:45.102Z,412.00
2019-01-02T08:50:45.135Z,436.00
2019-01-02T08:51:45.156Z,424.00
2019-01-02T08:52:45.191Z,444.00
2019-01-02T08:53:45.166Z,456.00
2019-01-02T08:54:45.195Z,504.00
2019-01-02T08:55:45.577Z,512.00
2019-01-02T08:56:45.314Z,524.00
2019-01-02T08:57:45.283Z,536.00
2019-01-02T08:58:45.319Z,548.00
2019-01-02T09:00:45.434Z,592.00
2019-01-02T09:01:45.479Z,596.00
2019-01-02T09:02:45.735Z,644.00
2019-01-02T09:03:45.471Z,648.00
2019-01-02T09:04:45.498Z,664.00
2019-01-02T09:05:45.728Z,668.00
2019-01-02T09:07:45.585Z,684.00
2019-01-02T09:08:45.672Z,684.00
2019-01-02T09:09:45.947Z,684.00
2019-01-02T09:10:45.732Z,680.00
2019-01-02T09:12:45.791Z,684.00
2019-01-02T09:13:45.763Z,696.00
2019-01-02T09:14:45.857Z,676.00
2019-01-02T09:15:46.175Z,636.00
2019-01-02T09:16:45.905Z,656.00
2019-01-02T09:17:45.886Z,648.00
2019-01-02T09:18:45.923Z,640.00
2019-01-02T09:19:46.000Z,628.00
2019-01-02T09:20:45.982Z,616.00
2019-01-02T09:21:46.063Z,660.00
2019-01-02T09:22:46.034Z,672.00
2019-01-02T09:23:46.067Z,664.00
2019-01-02T09:24:46.101Z,664.00
2019-01-02T09:25:46.131Z,672.00
2019-01-02T09:28:46.275Z,692.00
2019-01-02T09:29:46.554Z,668.00
2019-01-02T09:31:46.362Z,664.00
2019-01-02T09:32:46.337Z,636.00
2019-01-02T09:33:52.068Z,584.00
2019-01-02T09:34:46.509Z,532.00
2019-01-02T09:35:46.766Z,552.00
2019-01-02T09:36:46.558Z,612.00
2019-01-02T09:37:46.538Z,636.00
2019-01-02T09:38:46.568Z,640.00
2019-01-02T09:39:46.598Z,732.00
2019-01-02T09:40:46.701Z,740.00
2019-01-02T09:41:46.907Z,712.00
2019-01-02T09:42:46.685Z,724.00
2019-01-02T09:43:46.670Z,760.00
2019-01-02T09:44:46.757Z,780.00
2019-01-02T09:45:46.792Z,808.00
2019-01-02T09:46:46.808Z,772.00
2019-01-02T09:47:46.786Z,868.00
2019-01-02T09:48:46.867Z,956.00
2019-01-02T09:49:46.898Z,936.00
2019-01-02T09:50:46.877Z,932.00
2019-01-02T09:51:46.914Z,960.00
2019-01-02T09:52:47.086Z,980.00
2019-01-02T09:53:46.970Z,936.00
2019-01-02T09:54:47.349Z,932.00
2019-01-02T09:55:47.034Z,952.00
2019-01-02T09:56:47.111Z,920.00
2019-01-02T09:57:47.085Z,892.00
2019-01-02T09:58:47.122Z,1020.00
2019-01-02T09:59:47.200Z,1152.00
2019-01-02T10:00:47.236Z,1196.00
2019-01-02T10:01:47.511Z,1120.00
2019-01-02T10:02:47.241Z,1084.00
2019-01-02T10:03:47.265Z,1040.00
2019-01-02T10:04:47.353Z,1036.00
2019-01-02T10:05:47.331Z,1056.00
2019-01-02T10:06:47.361Z,1100.00
2019-01-02T10:07:47.388Z,1156.00
2019-01-02T10:08:47.423Z,1112.00
2019-01-02T10:09:47.503Z,1080.00
2019-01-02T10:10:47.484Z,1052.00
2019-01-02T10:11:47.511Z,1160.00
2019-01-02T10:12:47.592Z,1128.00
2019-01-02T10:13:47.622Z,1052.00
2019-01-02T10:14:47.901Z,1072.00
2019-01-02T10:15:47.634Z,1168.00
2019-01-02T10:16:47.713Z,1184.00
2019-01-02T10:17:47.746Z,1140.00
2019-01-02T10:19:47.753Z,1140.00
2019-01-02T10:20:47.841Z,1084.00
2019-01-02T10:21:47.875Z,1060.00
2019-01-02T10:22:47.845Z,1144.00
2019-01-02T10:23:47.875Z,1088.00
2019-01-02T10:24:47.905Z,996.00
2019-01-02T10:25:47.983Z,804.00
2019-01-02T10:26:48.014Z,764.00
2019-01-02T10:27:47.994Z,776.00
2019-01-02T10:28:48.079Z,788.00
2019-01-02T10:29:48.112Z,848.00
2019-01-02T10:30:48.089Z,984.00
2019-01-02T10:31:48.168Z,996.00
2019-01-02T10:32:48.204Z,1000.00
2019-01-02T10:33:48.170Z,964.00
2019-01-02T10:34:48.219Z,968.00
2019-01-02T10:35:48.287Z,952.00
2019-01-02T10:36:48.317Z,972.00
2019-01-02T10:37:48.348Z,976.00
2019-01-02T10:38:48.377Z,972.00
2019-01-02T10:39:48.727Z,988.00
2019-01-02T10:40:48.389Z,1004.00
2019-01-02T10:41:48.412Z,1040.00
2019-01-02T10:42:48.503Z,1160.00
2019-01-02T10:43:48.540Z,1280.00
2019-01-02T10:45:48.866Z,1488.00
2019-01-02T10:46:48.565Z,1448.00
2019-01-02T10:47:48.609Z,1344.00
2019-01-02T10:48:48.681Z,1360.00
2019-01-02T10:49:48.714Z,1360.00
2019-01-02T10:50:48.686Z,1376.00
2019-01-02T10:51:49.019Z,1460.00
2019-01-02T10:52:49.153Z,1600.00
2019-01-02T10:53:48.778Z,1692.00
2019-01-02T10:54:48.865Z,1680.00
2019-01-02T10:55:48.889Z,1676.00
2019-01-02T10:56:48.874Z,1600.00
2019-01-02T10:57:48.904Z,1524.00
2019-01-02T10:58:48.929Z,1496.00
2019-01-02T10:59:48.969Z,1552.00
2019-01-02T11:00:49.043Z,1576.00
2019-01-02T11:01:49.076Z,1524.00
2019-01-02T11:02:49.057Z,1476.00
2019-01-02T11:03:49.084Z,1452.00
2019-01-02T11:04:49.408Z,1360.00
2019-01-02T11:05:49.188Z,1268.00
2019-01-02T11:06:49.227Z,1128.00
2019-01-02T11:07:49.201Z,1036.00
2019-01-02T11:08:49.290Z,956.00
2019-01-02T11:09:50.321Z,1052.00
2019-01-02T11:10:49.296Z,1120.00
2019-01-02T11:11:49.332Z,1132.00
2019-01-02T11:12:49.409Z,1536.00
2019-01-02T11:13:49.435Z,1588.00
2019-01-02T11:15:49.553Z,1928.00
2019-01-02T11:16:49.530Z,2656.00
2019-01-02T11:17:49.511Z,2940.00
2019-01-02T11:18:49.535Z,2720.00
2019-01-02T11:19:49.568Z,2244.00
2019-01-02T11:20:49.646Z,1576.00
2019-01-02T11:21:49.673Z,1344.00
2019-01-02T11:22:49.972Z,1108.00
2019-01-02T11:23:49.686Z,1072.00
2019-01-02T11:24:49.773Z,892.00
2019-01-02T11:25:49.806Z,804.00
2019-01-02T11:26:49.778Z,852.00
2019-01-02T11:27:49.814Z,1012.00
2019-01-02T11:28:49.836Z,792.00
2019-01-02T11:29:49.918Z,952.00
2019-01-02T11:30:49.906Z,804.00
2019-01-02T11:31:49.991Z,868.00
2019-01-02T11:33:50.043Z,404.00
2019-01-02T11:34:50.023Z,400.00
2019-01-02T11:35:50.051Z,568.00
2019-01-02T11:36:50.137Z,408.00
2019-01-02T11:37:50.120Z,512.00
2019-01-02T11:38:50.195Z,524.00
2019-01-02T11:39:50.322Z,568.00
2019-01-02T11:40:50.258Z,628.00
2019-01-02T11:41:50.541Z,652.00
2019-01-02T11:42:50.263Z,708.00
2019-01-02T11:43:50.346Z,784.00
2019-01-02T11:44:50.388Z,696.00
2019-01-02T11:45:50.792Z,696.00
2019-01-02T11:46:50.395Z,784.00
2019-01-02T11:47:50.720Z,864.00
2019-01-02T11:48:50.506Z,984.00
2019-01-02T11:49:50.535Z,1168.00
2019-01-02T11:50:50.568Z,1120.00
2019-01-02T11:51:50.549Z,1200.00
2019-01-02T11:52:50.624Z,1504.00
2019-01-02T11:53:50.967Z,1908.00
2019-01-02T11:54:50.696Z,1672.00
2019-01-02T11:55:50.662Z,1740.00
2019-01-02T11:56:51.159Z,1684.00
2019-01-02T11:57:50.775Z,1620.00
2019-01-02T11:58:50.816Z,1472.00
2019-01-02T11:59:51.082Z,1476.00
2019-01-02T12:00:50.867Z,1756.00
2019-01-02T12:01:50.908Z,1756.00
2019-01-02T12:02:50.886Z,2016.00
2019-01-02T12:03:50.954Z,1976.00
2019-01-02T12:04:50.998Z,1988.00
2019-01-02T12:05:50.980Z,1940.00
2019-01-02T12:06:51.475Z,1760.00
2019-01-02T12:07:51.049Z,1784.00
2019-01-02T12:08:51.076Z,1772.00
2019-01-02T12:09:51.218Z,1536.00
2019-01-02T12:10:51.164Z,1452.00
2019-01-02T12:12:51.191Z,1532.00
2019-01-02T12:13:51.576Z,1504.00
2019-01-02T12:14:51.250Z,1472.00
2019-01-02T12:15:51.278Z,1476.00
2019-01-02T12:16:51.452Z,1484.00
2019-01-02T12:17:51.380Z,1508.00
2019-01-02T12:18:51.362Z,1544.00
2019-01-02T12:19:51.481Z,1592.00
2019-01-02T12:20:51.772Z,1764.00
2019-01-02T12:21:51.534Z,1800.00
2019-01-02T12:22:51.486Z,1784.00
2019-01-02T12:23:51.576Z,1872.00
2019-01-02T12:24:51.615Z,1884.00
2019-01-02T12:25:51.644Z,2148.00
2019-01-02T12:26:51.671Z,2744.00
2019-01-02T12:27:51.950Z,2436.00
2019-01-02T12:28:51.722Z,1964.00
2019-01-02T12:29:51.767Z,2036.00
2019-01-02T12:30:51.736Z,2192.00
2019-01-02T12:31:51.766Z,2488.00
2019-01-02T12:32:51.811Z,2304.00
2019-01-02T12:33:51.875Z,1808.00
2019-01-02T12:34:52.212Z,1508.00
2019-01-02T12:35:51.895Z,1404.00
2019-01-02T12:36:51.979Z,1444.00
2019-01-02T12:37:51.996Z,1708.00
2019-01-02T12:38:52.043Z,1760.00
2019-01-02T12:40:52.107Z,1704.00
2019-01-02T12:41:52.426Z,1780.00
2019-01-02T12:42:52.103Z,1800.00
2019-01-02T12:43:52.202Z,1660.00
2019-01-02T12:44:52.288Z,1640.00
2019-01-02T12:46:52.277Z,1636.00
2019-01-02T12:47:52.258Z,1788.00
2019-01-02T12:48:52.650Z,2092.00
2019-01-02T12:49:52.320Z,2380.00
2019-01-02T12:50:52.403Z,2084.00
2019-01-02T12:51:52.427Z,1816.00
2019-01-02T12:52:52.461Z,1772.00
2019-01-02T12:53:52.456Z,1856.00
2019-01-02T12:54:52.469Z,2116.00
2019-01-02T12:55:52.549Z,2064.00
2019-01-02T12:56:52.547Z,2120.00
2019-01-02T12:58:52.648Z,2672.00
2019-01-02T12:59:52.679Z,2768.00
2019-01-02T13:00:52.710Z,2520.00
2019-01-02T13:01:53.031Z,2044.00
2019-01-02T13:02:52.814Z,1748.00
2019-01-02T13:03:52.743Z,1508.00
2019-01-02T13:04:52.829Z,1316.00
2019-01-02T13:05:52.854Z,1300.00
2019-01-02T13:06:52.836Z,1332.00
2019-01-02T13:07:53.227Z,1332.00
2019-01-02T13:09:53.005Z,1784.00
2019-01-02T13:10:52.980Z,1816.00
2019-01-02T13:11:53.122Z,1796.00
2019-01-02T13:12:53.100Z,1380.00
2019-01-02T13:13:53.374Z,1092.00
2019-01-02T13:14:53.136Z,1088.00
2019-01-02T13:15:53.240Z,1052.00
2019-01-02T13:16:53.209Z,1040.00
2019-01-02T13:17:53.207Z,1008.00
2019-01-02T13:18:53.218Z,1064.00
2019-01-02T13:19:53.323Z,1160.00
2019-01-02T13:20:53.325Z,1148.00
2019-01-02T13:21:53.304Z,1064.00
2019-01-02T13:22:53.397Z,1060.00
2019-01-02T13:23:53.375Z,836.00
2019-01-02T13:24:53.391Z,660.00
2019-01-02T13:25:53.788Z,604.00
2019-01-02T13:26:53.516Z,680.00
2019-01-02T13:27:53.567Z,940.00
2019-01-02T13:28:53.575Z,956.00
2019-01-02T13:29:53.613Z,808.00
2019-01-02T13:30:53.655Z,696.00
2019-01-02T13:31:53.620Z,524.00
2019-01-02T13:32:53.703Z,404.00
2019-01-02T13:33:53.723Z,352.00
2019-01-02T13:34:53.760Z,328.00
2019-01-02T13:35:53.802Z,288.00
2019-01-02T13:36:53.882Z,276.00
2019-01-02T13:37:54.002Z,308.00
2019-01-02T13:38:53.885Z,328.00
2019-01-02T13:39:53.942Z,356.00
2019-01-02T13:40:53.940Z,384.00
2019-01-02T13:41:53.927Z,392.00
2019-01-02T13:42:54.026Z,404.00
2019-01-02T13:43:54.050Z,436.00
2019-01-02T13:44:54.399Z,484.00
2019-01-02T13:45:54.044Z,540.00
2019-01-02T13:46:54.139Z,612.00
2019-01-02T13:47:54.170Z,684.00
2019-01-02T13:48:54.194Z,740.00
2019-01-02T13:49:54.171Z,756.00
2019-01-02T13:50:54.502Z,792.00
2019-01-02T13:51:54.284Z,848.00
2019-01-02T13:52:54.309Z,964.00
2019-01-02T13:53:54.342Z,1096.00
2019-01-02T13:54:54.332Z,1208.00
2019-01-02T13:55:54.355Z,1344.00
2019-01-02T13:56:54.743Z,1628.00
2019-01-02T13:57:54.413Z,1724.00
2019-01-02T13:58:54.497Z,2320.00
2019-01-02T13:59:54.481Z,1652.00
2019-01-02T14:00:54.514Z,1636.00
2019-01-02T14:01:54.595Z,1680.00
2019-01-02T14:02:54.575Z,1888.00
2019-01-02T14:03:54.605Z,2536.00